Time;durP1;ratioP1;P1;durP2;ratioP2;P2;SDS_P1;SDS_P2;PMS_P1;PMS_P2;Temp;Humidity;BMP_temperature;BMP_pressure;BME280_temperature;BME280_humidity;BME280_pressure;Samples;Min_cycle;Max_cycle;Signal;HPM_P1;HPM_P2
2021/09/28 00:06:54;;;;;;;4.70;3.90;;;;;;;9.21;74.24;99952.65;461192;1190;143560;-60
2021/09/28 00:17:00;;;;;;;5.60;4.30;;;;;;;9.13;74.43;99952.89;465934;1190;141087;-61
2021/09/28 00:27:06;;;;;;;7.90;4.00;;;;;;;9.06;74.65;99950.66;477769;1190;198291;-62
2021/09/28 00:37:12;;;;;;;5.50;4.50;;;;;;;9.00;74.89;99957.92;468797;1190;141333;-61
2021/09/28 00:47:18;;;;;;;4.90;4.30;;;;;;;8.98;75.03;99959.25;477065;1190;142124;-62
2021/09/28 00:57:24;;;;;;;7.00;4.60;;;;;;;8.96;75.04;99957.28;472719;1182;141094;-61
2021/09/28 01:07:30;;;;;;;7.90;5.40;;;;;;;8.90;75.10;99960.34;472589;1191;140502;-60
2021/09/28 01:17:35;;;;;;;7.50;4.90;;;;;;;8.85;75.36;99957.31;475983;1190;142051;-61
2021/09/28 01:27:41;;;;;;;7.80;5.00;;;;;;;8.77;75.54;99949.84;461411;1190;140764;-63
2021/09/28 01:37:48;;;;;;;4.90;4.40;;;;;;;8.69;75.70;99949.58;464928;1190;142031;-62
2021/09/28 01:47:54;;;;;;;7.10;5.00;;;;;;;8.58;75.70;99949.38;460303;1190;141820;-61
2021/09/28 01:58:01;;;;;;;7.90;6.20;;;;;;;8.43;76.07;99952.54;461200;1183;144091;-61
2021/09/28 02:08:08;;;;;;;6.50;4.80;;;;;;;8.29;76.12;99952.86;463119;1191;141816;-58
2021/09/28 02:18:14;;;;;;;9.60;5.50;;;;;;;8.16;76.48;99956.98;461422;1177;142589;-60
2021/09/28 02:28:20;;;;;;;6.70;5.30;;;;;;;8.01;76.70;99960.64;471814;1191;141679;-62
2021/09/28 02:38:26;;;;;;;8.10;5.90;;;;;;;7.88;77.01;99964.03;466177;1190;140872;-61
2021/09/28 02:48:32;;;;;;;7.20;5.40;;;;;;;7.75;77.24;99959.41;477804;1190;141228;-62
2021/09/28 02:58:39;;;;;;;6.70;4.60;;;;;;;7.68;77.52;99950.67;470777;1191;145572;-61
2021/09/28 03:08:45;;;;;;;6.40;5.60;;;;;;;7.59;77.69;99951.44;476919;1191;141197;-62
2021/09/28 03:18:51;;;;;;;6.40;5.40;;;;;;;7.50;77.86;99959.52;477667;1190;143991;-62
2021/09/28 03:28:57;;;;;;;7.60;6.50;;;;;;;7.40;78.13;99961.54;474942;1191;139889;-62
2021/09/28 03:39:04;;;;;;;8.60;6.30;;;;;;;7.31;78.30;99969.05;471268;1191;143264;-61
2021/09/28 03:49:10;;;;;;;8.00;6.40;;;;;;;7.21;78.49;99981.68;460791;1192;140888;-63
2021/09/28 03:59:16;;;;;;;10.90;6.90;;;;;;;7.09;78.70;99984.29;472808;1191;142352;-62
2021/09/28 04:09:22;;;;;;;10.70;6.20;;;;;;;6.99;78.90;100002.63;477434;1191;141578;-62
2021/09/28 04:19:28;;;;;;;7.30;6.40;;;;;;;6.93;79.19;100017.52;477865;1190;142249;-62
2021/09/28 04:29:35;;;;;;;9.50;7.00;;;;;;;6.88;79.31;100019.64;477004;1190;141828;-63
2021/09/28 04:39:41;;;;;;;9.60;7.10;;;;;;;6.88;79.43;100017.91;475765;1191;141723;-63
2021/09/28 04:49:47;;;;;;;7.40;6.60;;;;;;;6.90;79.62;100015.89;476020;1191;141792;-61
2021/09/28 04:59:53;;;;;;;7.50;6.60;;;;;;;7.06;79.49;100020.44;465614;1191;142191;-63
2021/09/28 05:10:00;;;;;;;6.00;5.40;;;;;;;7.38;79.29;100027.98;477045;1191;141612;-62
2021/09/28 05:20:08;;;;;;;7.70;5.30;;;;;;;7.81;78.76;100038.45;472217;1191;141174;-59
2021/09/28 05:30:14;;;;;;;;;;;;;;;8.38;77.96;100051.04;476780;1190;195677;-61
2021/09/28 05:40:20;;;;;;;6.60;5.50;;;;;;;9.71;76.69;100050.66;477839;1190;128408;-62
2021/09/28 05:50:27;;;;;;;5.70;5.00;;;;;;;12.10;73.95;100056.34;465535;1191;141712;-62
2021/09/28 06:00:33;;;;;;;5.20;3.90;;;;;;;15.22;69.32;100057.52;477291;1191;143286;-63
2021/09/28 06:10:42;;;;;;;5.00;4.30;;;;;;;17.90;64.23;100065.91;477448;1191;141803;-63
2021/09/28 06:20:47;;;;;;;;;;;;;;;18.31;60.38;100074.29;476656;1191;141925;-63
2021/09/28 06:30:53;;;;;;;4.50;3.40;;;;;;;19.83;58.02;100083.95;472384;1190;131058;-63
2021/09/28 06:40:59;;;;;;;4.30;3.60;;;;;;;23.18;53.99;100087.27;462436;1192;141325;-63
2021/09/28 06:51:05;;;;;;;5.90;3.30;;;;;;;25.37;49.23;100094.11;460456;1178;141526;-62
2021/09/28 07:01:12;;;;;;;5.90;3.70;;;;;;;26.08;45.82;100100.27;464223;1190;141770;-62
2021/09/28 07:11:19;;;;;;;8.80;3.20;;;;;;;27.00;43.81;100108.90;460910;1190;142190;-62
2021/09/28 07:21:26;;;;;;;5.60;3.20;;;;;;;28.16;41.74;100108.71;462291;1190;140676;-63
2021/09/28 07:31:34;;;;;;;4.40;2.30;;;;;;;30.94;38.75;100115.75;465349;1190;141557;-63
2021/09/28 07:41:41;;;;;;;3.70;2.80;;;;;;;32.63;35.24;100118.10;466683;1191;144065;-58
2021/09/28 07:51:47;;;;;;;2.30;2.20;;;;;;;31.30;34.33;100116.61;465373;1191;142157;-59
2021/09/28 08:01:52;;;;;;;2.90;2.70;;;;;;;32.45;33.17;100123.03;472940;1190;142845;-64
2021/09/28 08:11:59;;;;;;;2.70;2.50;;;;;;;35.24;30.58;100116.13;469189;1190;141036;-62
2021/09/28 08:22:07;;;;;;;2.40;2.10;;;;;;;37.33;28.71;100126.28;466993;1190;142737;-68
2021/09/28 08:32:13;;;;;;;2.70;2.50;;;;;;;38.50;27.15;100128.39;477057;1190;141727;-63
2021/09/28 08:42:20;;;;;;;2.90;2.20;;;;;;;40.01;25.47;100132.77;461725;1190;20003185;-63
2021/09/28 08:52:26;;;;;;;6.20;3.30;;;;;;;37.96;24.85;100135.35;474943;1190;143308;-63
2021/09/28 09:02:48;;;;;;;6.10;2.90;;;;;;;30.49;27.30;100136.66;471507;1190;141204;-65
2021/09/28 09:12:56;;;;;;;4.40;3.10;;;;;;;24.37;32.17;100141.80;466892;1190;141668;-63
2021/09/28 09:23:21;;;;;;;3.30;3.00;;;;;;;21.18;36.35;100146.20;470913;1190;140850;-68
2021/09/28 09:33:28;;;;;;;4.20;3.40;;;;;;;19.40;39.48;100150.55;468274;1190;141212;-67
2021/09/28 09:43:35;;;;;;;5.40;3.40;;;;;;;18.49;41.64;100150.83;465855;1190;140460;-64
2021/09/28 09:53:53;;;;;;;4.70;4.10;;;;;;;18.18;43.34;100148.56;471149;1191;140624;-69
2021/09/28 10:04:00;;;;;;;3.50;2.50;;;;;;;17.95;44.38;100149.87;464589;1191;145459;-62
2021/09/28 10:14:07;;;;;;;5.90;3.30;;;;;;;17.97;44.67;100156.41;465688;1191;140658;-64
2021/09/28 10:24:33;;;;;;;6.90;2.90;;;;;;;17.64;45.30;100163.80;472946;1191;140613;-59
2021/09/28 10:35:13;;;;;;;5.00;2.50;;;;;;;17.10;46.32;100160.95;465632;1191;144433;-60
2021/09/28 10:45:21;;;;;;;4.70;2.80;;;;;;;16.69;47.32;100167.27;466214;1190;141276;-64
2021/09/28 10:55:41;;;;;;;3.20;2.60;;;;;;;16.41;47.96;100170.86;461482;1190;140854;-64
2021/09/28 11:05:58;;;;;;;4.00;2.80;;;;;;;16.15;48.74;100160.19;464722;1190;143609;-61
2021/09/28 11:16:07;;;;;;;3.40;2.30;;;;;;;15.99;49.47;100164.08;475091;1190;140835;-64
2021/09/28 11:26:12;;;;;;;4.10;2.30;;;;;;;15.86;50.16;100163.87;469310;1190;140902;-66
2021/09/28 11:36:19;;;;;;;2.90;2.70;;;;;;;15.98;50.72;100169.46;477835;1190;141638;-66
2021/09/28 11:46:27;;;;;;;3.30;2.80;;;;;;;15.93;51.08;100161.70;465357;1190;141256;-65
2021/09/28 11:56:36;;;;;;;5.30;3.40;;;;;;;15.99;51.19;100159.48;464045;1190;145362;-65
2021/09/28 12:07:00;;;;;;;3.60;3.00;;;;;;;15.86;51.31;100161.35;471027;1190;141040;-62
2021/09/28 12:17:18;;;;;;;4.80;2.30;;;;;;;15.84;51.70;100154.95;474707;1190;141961;-59
2021/09/28 12:27:25;;;;;;;3.20;2.60;;;;;;;15.98;51.69;100147.77;475193;1180;142225;-67
2021/09/28 12:37:44;;;;;;;3.50;2.40;;;;;;;16.26;51.80;100138.52;463867;1190;140610;-64
2021/09/28 12:48:01;;;;;;;4.10;2.10;;;;;;;16.43;51.12;100136.10;469223;1190;141747;-67
2021/09/28 12:58:09;;;;;;;3.20;2.00;;;;;;;16.49;51.38;100140.39;477743;1190;143128;-65
2021/09/28 13:08:19;;;;;;;6.20;3.40;;;;;;;16.48;51.37;100141.52;464859;1190;141634;-65
2021/09/28 13:18:27;;;;;;;4.60;2.50;;;;;;;16.28;51.92;100141.67;473221;1190;139984;-64
2021/09/28 13:28:33;;;;;;;5.80;2.70;;;;;;;16.03;52.08;100145.74;463798;1191;141773;-64
2021/09/28 13:38:39;;;;;;;7.10;2.90;;;;;;;15.97;52.38;100150.80;466117;1190;141962;-65
2021/09/28 13:48:45;;;;;;;8.60;2.80;;;;;;;16.15;52.56;100157.22;464277;1190;142286;-65
2021/09/28 13:58:51;;;;;;;2.40;2.20;;;;;;;16.34;52.34;100170.40;461787;1190;141420;-60
2021/09/28 14:08:57;;;;;;;5.00;2.50;;;;;;;16.42;51.97;100173.64;476329;1190;145539;-62
2021/09/28 14:19:03;;;;;;;3.00;1.90;;;;;;;16.29;51.74;100171.15;477163;1190;140862;-61
2021/09/28 14:29:09;;;;;;;3.10;2.30;;;;;;;16.19;51.78;100178.83;460062;1190;142959;-60
2021/09/28 14:39:15;;;;;;;5.40;3.00;;;;;;;16.20;52.17;100181.36;459866;1190;10001929;-62
2021/09/28 14:49:21;;;;;;;3.70;1.90;;;;;;;16.31;52.07;100185.67;469735;1190;141728;-62
2021/09/28 14:59:28;;;;;;;3.20;2.50;;;;;;;16.38;51.64;100187.52;461676;1190;142079;-61
2021/09/28 15:09:38;;;;;;;4.30;2.20;;;;;;;16.36;51.70;100189.84;474235;1190;141840;-61
2021/09/28 15:19:46;;;;;;;2.60;1.60;;;;;;;16.30;51.29;100189.58;474809;1190;141055;-66
2021/09/28 15:29:52;;;;;;;1.90;1.80;;;;;;;16.05;51.18;100193.48;468721;1190;140904;-65
2021/09/28 15:39:57;;;;;;;3.90;2.20;;;;;;;15.88;51.39;100195.97;465650;1190;141063;-59
2021/09/28 15:50:05;;;;;;;3.00;2.50;;;;;;;15.53;51.39;100198.05;471399;1190;141033;-62
2021/09/28 16:00:14;;;;;;;3.60;2.10;;;;;;;15.12;52.13;100202.83;465494;1190;140821;-59
2021/09/28 16:10:20;;;;;;;5.00;3.10;;;;;;;14.68;53.32;100214.42;466476;1190;142798;-60
2021/09/28 16:20:26;;;;;;;2.90;2.50;;;;;;;14.18;54.28;100220.73;475387;1191;141348;-59
2021/09/28 16:30:32;;;;;;;2.90;2.70;;;;;;;13.68;55.31;100230.77;462706;1190;141167;-59
2021/09/28 16:40:38;;;;;;;3.40;2.70;;;;;;;13.21;56.03;100244.13;470272;1190;140903;-59
2021/09/28 16:50:44;;;;;;;5.40;3.30;;;;;;;12.79;57.05;100254.55;469500;1191;142309;-59
2021/09/28 17:00:52;;;;;;;4.20;3.60;;;;;;;12.46;57.82;100262.67;473797;1191;140798;-59
2021/09/28 17:10:57;;;;;;;;;;;;;;;12.18;58.61;100270.33;477675;1190;141555;-58
2021/09/28 17:21:03;;;;;;;5.60;4.40;;;;;;;11.94;59.44;100277.48;477147;1190;130363;-59
2021/09/28 17:31:08;;;;;;;10.20;4.30;;;;;;;11.73;60.05;100282.57;477697;1190;141938;-59
2021/09/28 17:41:16;;;;;;;4.30;3.70;;;;;;;11.56;60.50;100286.52;476927;1190;141896;-60
2021/09/28 17:51:22;;;;;;;6.60;4.00;;;;;;;11.36;61.07;100287.79;464889;1192;146530;-58
2021/09/28 18:01:28;;;;;;;6.50;4.40;;;;;;;11.14;61.56;100295.84;472645;1178;141372;-58
2021/09/28 18:11:34;;;;;;;5.90;4.30;;;;;;;10.94;62.13;100291.83;477053;1190;141883;-59
2021/09/28 18:21:40;;;;;;;5.50;4.90;;;;;;;10.73;62.46;100294.19;473792;1190;142096;-59
2021/09/28 18:31:49;;;;;;;7.70;5.70;;;;;;;10.54;62.92;100293.77;461712;1190;10002128;-59
2021/09/28 18:41:59;;;;;;;5.60;4.60;;;;;;;10.37;63.46;100292.86;476575;1191;142434;-59
2021/09/28 18:52:05;;;;;;;7.60;5.50;;;;;;;10.23;63.75;100294.49;474568;1190;141561;-58
2021/09/28 19:02:15;;;;;;;6.30;5.40;;;;;;;10.07;64.20;100301.40;466477;1190;144962;-60
2021/09/28 19:12:25;;;;;;;7.60;6.00;;;;;;;9.91;64.60;100304.63;460945;1190;142477;-59
2021/09/28 19:22:33;;;;;;;7.10;5.80;;;;;;;9.75;64.86;100308.92;477852;1190;141557;-59
2021/09/28 19:32:39;;;;;;;10.80;7.90;;;;;;;9.62;65.28;100306.59;477012;1190;142932;-60
2021/09/28 19:42:47;;;;;;;6.90;6.30;;;;;;;9.55;65.51;100312.52;469279;1191;10002023;-58
2021/09/28 19:52:56;;;;;;;8.20;6.90;;;;;;;9.47;65.57;100313.95;477536;1191;144162;-59
2021/09/28 20:03:19;;;;;;;7.20;5.40;;;;;;;9.34;65.83;100313.14;467186;1191;141158;-58
2021/09/28 20:44:51;;;;;;;7.00;6.40;;;;;;;8.81;66.95;100308.58;467783;1190;141818;-59
2021/09/28 20:54:57;;;;;;;7.50;6.70;;;;;;;8.69;67.36;100303.52;477799;1190;142061;-60
2021/09/28 21:05:03;;;;;;;9.80;6.90;;;;;;;8.57;67.67;100305.95;477408;1190;141553;-60
2021/09/28 21:15:10;;;;;;;7.50;5.90;;;;;;;8.47;67.82;100307.09;477344;1191;141725;-59
2021/09/28 21:25:17;;;;;;;8.50;6.50;;;;;;;8.35;68.19;100308.09;462081;1191;141665;-57
2021/09/28 21:35:25;;;;;;;9.00;6.00;;;;;;;8.23;68.59;100311.73;475736;1190;141276;-59
2021/09/28 21:45:30;;;;;;;;;;;;;;;8.10;68.70;100320.15;477512;1191;142455;-58
2021/09/28 21:55:36;;;;;;;10.60;7.40;;;;;;;8.01;69.23;100321.92;471607;1191;128383;-59
2021/09/28 22:05:42;;;;;;;10.30;8.30;;;;;;;7.96;69.31;100323.01;476502;1191;141703;-59
2021/09/28 22:15:48;;;;;;;8.10;7.00;;;;;;;7.87;69.57;100326.84;477504;1191;141773;-58
2021/09/28 22:25:55;;;;;;;11.30;8.20;;;;;;;7.82;69.76;100321.64;473518;1191;141779;-57
2021/09/28 22:36:00;;;;;;;10.50;7.90;;;;;;;7.70;70.10;100306.25;477101;1190;145295;-58
2021/09/28 22:46:06;;;;;;;12.70;8.00;;;;;;;7.62;70.39;100307.13;477828;1190;141889;-58
2021/09/28 22:56:12;;;;;;;10.30;8.10;;;;;;;7.54;70.69;100311.44;461067;1192;141904;-57
2021/09/28 23:06:18;;;;;;;10.10;7.90;;;;;;;7.46;70.96;100314.52;460247;1192;141949;-57
2021/09/28 23:16:24;;;;;;;10.00;7.90;;;;;;;7.34;71.33;100320.04;469903;1190;141858;-57
2021/09/28 23:26:30;;;;;;;10.90;8.10;;;;;;;7.23;71.50;100315.40;474807;1190;142312;-58
2021/09/28 23:36:35;;;;;;;12.00;8.20;;;;;;;7.13;71.79;100307.29;461078;1190;143968;-57
2021/09/28 23:46:41;;;;;;;10.90;8.10;;;;;;;7.06;72.01;100305.44;460865;1190;142970;-57
2021/09/28 23:56:47;;;;;;;10.50;7.60;;;;;;;6.97;72.24;100300.52;471610;1190;141533;-57
